Impacts METAR Board
IDs:

KMDW - Chicago/Midway Intl, IL, US

Updated at: 2100 UTC 20 Jun 2019
Potential Impact None Slight Moderate High
Time 20/09Z 20/10Z 20/11Z 20/12Z 20/13Z 20/14Z 20/15Z 20/16Z 20/17Z 20/18Z 20/19Z 20/20Z 20/21Z
Temp58 57 58 58 59 61 61 60 62 60 63 65 68
Dewpt57 57 57 58 58 60 59 59 58 59 59 59 59
Altim29.57 29.58 29.60 29.63 29.64 29.66 29.66 29.69 29.71 29.74 29.76 29.77 29.78
VIS3 2.5 2 3 6 7 7 8 9 8 10 10 10
CIG5 3 3 4 5 6 5 5 8 8 11 15 20
CoverOVCOVCOVCOVCOVCOVCOVCOVCOVCOVCOVCOVCBKN
FltCatIFRLIFRLIFRLIFRIFRIFRIFRIFRIFRIFRMVFRMVFRMVFR
WXBRBRBR-RA BR-RA BR----------------
WDir203603603403603503603603603503501040
WSpd11 11 12 12 12 15 11 14 10 8 8 8 7
WGst-- -- -- -- 20 19 20 -- -- -- -- -- --
Raw hourly METARs
KMDW 200853Z 02011KT 3SM BR OVC005 14/14 A2957 RMK AO2 RAE52 SLP011 P0001 60018 T01440139 56014
KMDW 200953Z 36011KT 2 1/2SM BR OVC003 14/14 A2958 RMK AO2 SLP014 T01390139
KMDW 201053Z 36012KT 2SM BR OVC003 14/14 A2960 RMK AO2 SLP020 T01440139
KMDW 201153Z 34012KT 3SM -RA BR OVC004 14/14 A2963 RMK AO2 RAB22 SLP032 P0002 60020 70050 T01440144 10150 20133 53020
KMDW 201253Z 36012G20KT 6SM -RA BR OVC005 15/14 A2964 RMK AO2 RAE23B52 SLP036 P0000 T01500144
KMDW 201353Z 35015G19KT 7SM OVC006 16/16 A2966 RMK AO2 RAE23 SLP042 P0001 T01610156
KMDW 201453Z 36011G20KT 7SM OVC005 16/15 A2966 RMK AO2 SLP043 60001 T01610150 53006
KMDW 201553Z 36014KT 8SM OVC005 16/15 A2969 RMK AO2 SLP052 T01560150
KMDW 201653Z 36010KT 9SM OVC008 17/14 A2971 RMK AO2 SLP059 T01670144
KMDW 201805Z 35008KT 8SM OVC008 16/15 A2974 RMK AO2 DZE04 P0000 T01560150
KMDW 201853Z 35008KT 10SM OVC011 17/15 A2976 RMK AO2 DZE04 SLP075 P0000 T01720150
KMDW 201953Z 01008KT 10SM OVC015 18/15 A2977 RMK AO2 SLP077 T01830150
KMDW 202053Z 04007KT 10SM BKN020 BKN037 BKN080 20/15 A2978 RMK AO2 SLP080 60000 T02000150 51012



Page loaded:  21:06 UTC  |   02:06 PM Pacific  |   03:06 PM Mountain  |   04:06 PM Central  |   05:06 PM Eastern

 

ADVISORIES

FORECASTS

FORECASTS

OBSERVATIONS

USER TOOLS

ABOUT US